Time;durP1;ratioP1;P1;durP2;ratioP2;P2;SDS_P1;SDS_P2;PMS_P1;PMS_P2;Temp;Humidity;BMP_temperature;BMP_pressure;BME280_temperature;BME280_humidity;BME280_pressure;Samples;Min_cycle;Max_cycle;Signal;HPM_P1;HPM_P2
2023/09/15 00:00:45;;;;;;;3.53;1.60;;;9.60;99.90;;;;;;5067263;28;20225;-80
2023/09/15 00:03:12;;;;;;;1.60;1.50;;;9.50;99.90;;;;;;5080941;28;20231;-80
2023/09/15 00:05:40;;;;;;;5.57;1.80;;;9.50;99.90;;;;;;5077692;28;20225;-80
2023/09/15 00:08:07;;;;;;;5.60;1.73;;;9.50;99.90;;;;;;5082516;28;20226;-80
2023/09/15 00:10:34;;;;;;;4.70;1.67;;;9.50;99.90;;;;;;5081486;28;20444;-80
2023/09/15 00:13:02;;;;;;;2.67;1.67;;;9.50;99.90;;;;;;5063616;28;20223;-80
2023/09/15 00:15:29;;;;;;;1.73;1.40;;;9.40;99.90;;;;;;5064449;28;20551;-80
2023/09/15 00:17:56;;;;;;;2.93;1.60;;;9.40;99.90;;;;;;5068386;28;20282;-80
2023/09/15 00:20:24;;;;;;;2.37;1.27;;;9.40;99.90;;;;;;5064534;28;20226;-80
2023/09/15 00:22:55;;;;;;;2.27;1.30;;;9.40;99.90;;;;;;5073523;28;20317;-80
2023/09/15 00:25:26;;;;;;;6.97;1.50;;;9.30;99.90;;;;;;5080411;28;20230;-81
2023/09/15 00:27:54;;;;;;;2.27;1.40;;;9.30;99.90;;;;;;5063453;28;20217;-81
2023/09/15 00:30:22;;;;;;;1.97;1.63;;;9.30;99.90;;;;;;5063496;28;20765;-81
2023/09/15 00:32:49;;;;;;;4.37;1.77;;;9.20;99.90;;;;;;5069173;28;20225;-81
2023/09/15 00:35:17;;;;;;;2.07;1.50;;;9.20;99.90;;;;;;5084237;28;20598;-81
2023/09/15 00:37:45;;;;;;;3.63;1.40;;;9.20;99.90;;;;;;5063963;28;20222;-81
2023/09/15 00:40:14;;;;;;;2.33;1.33;;;9.10;99.90;;;;;;5069395;28;20362;-80
2023/09/15 00:42:43;;;;;;;3.63;1.50;;;9.10;99.90;;;;;;5066109;28;20702;-81
2023/09/15 00:45:14;;;;;;;3.40;1.40;;;9.00;99.90;;;;;;5066080;28;20318;-81
2023/09/15 00:47:43;;;;;;;2.47;1.57;;;9.00;99.90;;;;;;5082760;28;20312;-80
2023/09/15 00:50:13;;;;;;;2.93;1.60;;;9.00;99.90;;;;;;5064877;28;20210;-80
2023/09/15 00:52:40;;;;;;;1.97;1.30;;;8.90;99.90;;;;;;5069019;28;20678;-80
2023/09/15 00:55:08;;;;;;;1.67;1.30;;;8.90;99.90;;;;;;5068090;28;20219;-81
2023/09/15 00:57:37;;;;;;;4.40;1.70;;;8.90;99.90;;;;;;5067177;28;20237;-81
2023/09/15 01:00:11;;;;;;;2.03;1.73;;;8.80;99.90;;;;;;5084502;28;20767;-81
2023/09/15 01:02:38;;;;;;;2.80;1.40;;;8.80;99.90;;;;;;5063714;28;20259;-80
2023/09/15 01:05:06;;;;;;;3.10;1.40;;;8.80;99.90;;;;;;5076530;28;20297;-80
2023/09/15 01:07:34;;;;;;;3.87;1.50;;;8.70;99.90;;;;;;5084777;28;20252;-81
2023/09/15 01:10:02;;;;;;;3.43;1.37;;;8.70;99.90;;;;;;5066772;28;20242;-81
2023/09/15 01:12:29;;;;;;;3.13;1.53;;;8.70;99.90;;;;;;5085900;28;20257;-80
2023/09/15 01:14:57;;;;;;;3.30;1.63;;;8.70;99.90;;;;;;5085871;28;20308;-80
2023/09/15 01:17:33;;;;;;;3.07;1.50;;;8.70;99.90;;;;;;5062658;28;20245;-80
2023/09/15 01:20:09;;;;;;;4.80;1.77;;;8.70;99.90;;;;;;5087334;28;20220;-80
2023/09/15 01:23:01;;;;;;;4.13;1.90;;;8.60;99.90;;;;;;5085011;28;20224;-80
2023/09/15 01:25:56;;;;;;;4.03;1.90;;;8.60;99.90;;;;;;5081109;28;20312;-80
2023/09/15 01:28:56;;;;;;;2.77;1.47;;;8.60;99.90;;;;;;5067937;28;20773;-79
2023/09/15 01:31:25;;;;;;;2.97;1.70;;;8.60;99.90;;;;;;5079104;28;20225;-79
2023/09/15 01:33:56;;;;;;;3.83;1.80;;;8.60;99.90;;;;;;5065732;28;20709;-79
2023/09/15 01:36:23;;;;;;;6.13;2.00;;;8.60;99.90;;;;;;5086187;28;20405;-79
2023/09/15 01:38:50;;;;;;;3.43;1.87;;;8.60;99.90;;;;;;5070031;28;20238;-80
2023/09/15 01:41:17;;;;;;;3.30;1.83;;;8.60;99.90;;;;;;5086246;28;20225;-79
2023/09/15 01:43:44;;;;;;;2.27;1.50;;;8.60;99.90;;;;;;5065597;28;20217;-79
2023/09/15 01:46:11;;;;;;;2.17;1.47;;;8.60;99.90;;;;;;5069375;28;20366;-80
2023/09/15 01:48:40;;;;;;;3.00;1.80;;;8.60;99.90;;;;;;5091149;28;21228;-80
2023/09/15 01:51:08;;;;;;;3.97;1.77;;;8.60;99.90;;;;;;5072222;28;20247;-79
2023/09/15 01:53:36;;;;;;;4.73;1.70;;;8.50;99.90;;;;;;5073021;28;20336;-80
2023/09/15 01:56:03;;;;;;;4.17;1.70;;;8.50;99.90;;;;;;5090255;28;20296;-80
2023/09/15 01:58:30;;;;;;;3.67;1.90;;;8.50;99.90;;;;;;5075058;28;20229;-80
2023/09/15 02:00:57;;;;;;;2.73;1.40;;;8.50;99.90;;;;;;5070808;28;20237;-80
2023/09/15 02:03:26;;;;;;;2.47;1.50;;;8.50;99.90;;;;;;5074891;28;20312;-80
2023/09/15 02:06:00;;;;;;;2.03;1.40;;;8.50;99.90;;;;;;5076425;28;20220;-81
2023/09/15 02:08:27;;;;;;;3.50;2.00;;;8.50;99.90;;;;;;5067997;28;20245;-80
2023/09/15 02:10:56;;;;;;;2.00;1.57;;;8.50;99.90;;;;;;5073813;28;20237;-80
2023/09/15 02:13:23;;;;;;;2.00;1.57;;;8.40;99.90;;;;;;5091336;28;20244;-80
2023/09/15 02:15:53;;;;;;;1.93;1.40;;;8.40;99.90;;;;;;5089773;28;20233;-80
2023/09/15 02:18:20;;;;;;;2.87;1.70;;;8.50;99.90;;;;;;5071155;28;20317;-80
2023/09/15 02:20:55;;;;;;;4.43;2.27;;;8.50;99.90;;;;;;5072355;28;20861;-81
2023/09/15 02:23:22;;;;;;;4.30;2.13;;;8.40;99.90;;;;;;5071245;28;20264;-81
2023/09/15 02:25:49;;;;;;;4.80;2.20;;;8.40;99.90;;;;;;5093339;28;20307;-81
2023/09/15 02:28:16;;;;;;;3.33;1.97;;;8.40;99.90;;;;;;5089705;28;20252;-81
2023/09/15 02:30:43;;;;;;;2.87;2.00;;;8.40;99.90;;;;;;5068523;28;20941;-80
2023/09/15 02:33:10;;;;;;;3.43;1.90;;;8.40;99.90;;;;;;5073743;28;20264;-80
2023/09/15 02:35:37;;;;;;;4.13;2.17;;;8.40;99.90;;;;;;5088475;28;20235;-80
2023/09/15 02:38:06;;;;;;;3.33;2.00;;;8.30;99.90;;;;;;5079342;28;20312;-79
2023/09/15 02:40:33;;;;;;;5.03;1.93;;;8.30;99.90;;;;;;5071756;28;20876;-80
2023/09/15 02:42:59;;;;;;;4.03;1.80;;;8.30;99.90;;;;;;5070477;28;20214;-79
2023/09/15 02:45:26;;;;;;;2.33;1.57;;;8.30;99.90;;;;;;5093468;28;20292;-79
2023/09/15 02:47:53;;;;;;;3.37;2.00;;;8.30;99.90;;;;;;5087304;28;20217;-79
2023/09/15 02:50:19;;;;;;;4.50;2.07;;;8.30;99.90;;;;;;5073878;28;20806;-80
2023/09/15 02:52:46;;;;;;;4.13;2.13;;;8.30;99.90;;;;;;5092570;28;20340;-79
2023/09/15 02:55:14;;;;;;;2.73;2.07;;;8.30;99.90;;;;;;5085720;28;20698;-80
2023/09/15 02:57:41;;;;;;;4.07;1.97;;;8.20;99.90;;;;;;5063008;28;20252;-81
2023/09/15 03:00:13;;;;;;;2.57;1.80;;;8.30;99.90;;;;;;5071331;28;20269;-81
2023/09/15 03:02:41;;;;;;;2.57;1.90;;;8.20;99.90;;;;;;5072903;28;20263;-81
2023/09/15 03:05:09;;;;;;;4.77;2.23;;;8.20;99.90;;;;;;5066554;28;20306;-80
2023/09/15 03:07:39;;;;;;;5.00;2.10;;;8.20;99.90;;;;;;5073859;28;20255;-80
2023/09/15 03:10:08;;;;;;;8.87;2.63;;;8.20;99.90;;;;;;5071583;28;20249;-79
2023/09/15 03:12:37;;;;;;;3.60;1.90;;;8.20;99.90;;;;;;5092339;28;20792;-78
2023/09/15 03:15:08;;;;;;;4.27;2.23;;;8.20;99.90;;;;;;5088302;28;20644;-78
2023/09/15 03:17:37;;;;;;;5.37;2.30;;;8.20;99.90;;;;;;5073999;28;20224;-80
2023/09/15 03:20:12;;;;;;;4.10;2.47;;;8.20;99.90;;;;;;5086550;28;20272;-80
2023/09/15 03:22:40;;;;;;;4.73;2.50;;;8.20;99.90;;;;;;5068487;28;20231;-80
2023/09/15 03:25:08;;;;;;;2.77;2.10;;;8.10;99.90;;;;;;5070116;28;20225;-79
2023/09/15 03:27:36;;;;;;;2.60;2.07;;;8.10;99.90;;;;;;5066146;28;20284;-80
2023/09/15 03:30:04;;;;;;;4.37;2.90;;;8.10;99.90;;;;;;5068830;28;20265;-79
2023/09/15 03:32:31;;;;;;;3.40;2.60;;;8.10;99.90;;;;;;5094948;28;20283;-79
2023/09/15 03:34:58;;;;;;;3.23;2.20;;;8.10;99.90;;;;;;5070252;28;20237;-79
2023/09/15 03:37:25;;;;;;;2.70;1.97;;;8.10;99.90;;;;;;5072464;28;20236;-79
2023/09/15 03:39:52;;;;;;;4.93;2.27;;;8.10;99.90;;;;;;5064398;28;20317;-79
2023/09/15 03:42:19;;;;;;;3.40;2.10;;;8.10;99.90;;;;;;5074645;28;20228;-80
2023/09/15 03:44:47;;;;;;;3.90;2.63;;;8.10;99.90;;;;;;5072322;28;20229;-79
2023/09/15 03:47:14;;;;;;;4.07;2.20;;;8.00;99.90;;;;;;5072681;28;20355;-80
2023/09/15 03:49:42;;;;;;;3.33;2.70;;;8.00;99.90;;;;;;5073292;28;20229;-80
2023/09/15 03:52:09;;;;;;;4.03;2.70;;;8.00;99.90;;;;;;5074179;28;20226;-79
2023/09/15 03:54:37;;;;;;;3.83;2.80;;;8.00;99.90;;;;;;5091956;28;20226;-80
2023/09/15 03:57:05;;;;;;;2.90;2.43;;;8.00;99.90;;;;;;5089275;28;20216;-80
2023/09/15 03:59:32;;;;;;;5.13;2.67;;;8.00;99.90;;;;;;5071515;28;20217;-79
2023/09/15 04:02:00;;;;;;;3.53;2.40;;;8.00;99.90;;;;;;5068892;28;20802;-80
2023/09/15 04:04:27;;;;;;;4.37;2.43;;;8.00;99.90;;;;;;5067601;28;20252;-80
2023/09/15 04:06:54;;;;;;;4.33;2.70;;;8.00;99.90;;;;;;5068397;28;20829;-79
2023/09/15 04:09:23;;;;;;;4.13;2.87;;;8.00;99.90;;;;;;5088931;28;20908;-78
2023/09/15 04:11:50;;;;;;;5.57;2.87;;;8.00;99.90;;;;;;5088221;28;20267;-78
2023/09/15 04:14:16;;;;;;;4.13;2.70;;;8.00;99.90;;;;;;5082203;28;20722;-78
2023/09/15 04:16:43;;;;;;;2.80;2.30;;;8.00;99.90;;;;;;5059137;28;20257;-78
2023/09/15 04:19:12;;;;;;;3.90;2.23;;;8.00;99.90;;;;;;5065164;28;20229;-78
2023/09/15 04:21:38;;;;;;;3.80;2.97;;;8.00;99.90;;;;;;5078987;28;20237;-78
2023/09/15 04:24:06;;;;;;;5.80;2.40;;;8.00;99.90;;;;;;5064460;28;20220;-80
2023/09/15 04:26:34;;;;;;;3.67;2.23;;;8.10;99.90;;;;;;5064936;28;20313;-81
2023/09/15 04:29:01;;;;;;;3.00;2.53;;;8.10;99.90;;;;;;5072061;28;20252;-80
2023/09/15 04:31:28;;;;;;;4.70;2.50;;;8.10;99.90;;;;;;5088904;28;20217;-79
2023/09/15 04:33:55;;;;;;;4.80;2.70;;;8.20;99.90;;;;;;5083182;28;20235;-80
2023/09/15 04:36:24;;;;;;;4.40;2.73;;;8.20;99.90;;;;;;5060140;28;20218;-79
2023/09/15 04:38:51;;;;;;;4.17;2.60;;;8.20;99.90;;;;;;5067570;28;20249;-79
2023/09/15 04:41:18;;;;;;;2.23;2.03;;;8.30;99.90;;;;;;5066672;28;20229;-80
2023/09/15 04:43:45;;;;;;;3.73;2.50;;;8.30;99.90;;;;;;5066778;28;20265;-81
2023/09/15 04:46:12;;;;;;;3.23;2.83;;;8.30;99.90;;;;;;5065438;28;20229;-80
2023/09/15 04:48:39;;;;;;;3.40;2.40;;;8.40;99.90;;;;;;5067970;28;20295;-79
2023/09/15 04:51:07;;;;;;;4.60;2.60;;;8.40;99.90;;;;;;5068638;28;20226;-79
2023/09/15 04:53:35;;;;;;;3.67;2.70;;;8.40;99.90;;;;;;5066952;28;21014;-79
2023/09/15 04:56:03;;;;;;;4.33;2.80;;;8.50;99.90;;;;;;5069800;28;20218;-80
2023/09/15 04:58:31;;;;;;;5.60;3.17;;;8.50;99.90;;;;;;5075082;28;20222;-79
2023/09/15 05:01:00;;;;;;;5.97;2.80;;;8.50;99.90;;;;;;5067131;28;20218;-79
2023/09/15 05:03:28;;;;;;;4.77;2.80;;;8.60;99.90;;;;;;5069119;28;20232;-80
2023/09/15 05:05:55;;;;;;;5.07;2.67;;;8.60;99.90;;;;;;5066046;28;20218;-80
2023/09/15 05:08:22;;;;;;;5.57;2.83;;;8.60;99.90;;;;;;5067212;28;20232;-80
2023/09/15 05:10:51;;;;;;;4.00;2.77;;;8.70;99.90;;;;;;5070264;28;20229;-80
2023/09/15 05:13:18;;;;;;;3.50;2.60;;;8.70;99.90;;;;;;5088239;28;20797;-79
2023/09/15 05:15:45;;;;;;;7.00;3.20;;;8.80;99.90;;;;;;5070512;28;20234;-80
2023/09/15 05:18:12;;;;;;;5.60;3.40;;;8.80;99.90;;;;;;5070006;28;20839;-80
2023/09/15 05:20:39;;;;;;;4.27;3.00;;;8.90;99.90;;;;;;5065067;28;20222;-80
2023/09/15 05:23:06;;;;;;;4.77;2.80;;;8.90;99.90;;;;;;5067609;28;20829;-80
2023/09/15 05:25:34;;;;;;;5.20;3.43;;;9.00;99.90;;;;;;5085366;28;20328;-80
2023/09/15 05:28:04;;;;;;;4.37;3.30;;;9.00;99.90;;;;;;5068430;28;20222;-78
2023/09/15 05:30:33;;;;;;;3.50;2.90;;;9.10;99.90;;;;;;5060185;28;20238;-77
2023/09/15 05:33:00;;;;;;;3.70;2.93;;;9.20;99.90;;;;;;5070601;28;20287;-79
2023/09/15 05:35:28;;;;;;;4.47;3.10;;;9.30;99.90;;;;;;5065459;28;20308;-80
2023/09/15 05:37:55;;;;;;;4.53;2.87;;;9.30;99.90;;;;;;5061199;28;20986;-80
2023/09/15 05:40:22;;;;;;;3.77;3.00;;;9.30;99.90;;;;;;5068042;28;20290;-79
2023/09/15 05:42:49;;;;;;;4.03;3.03;;;9.40;99.90;;;;;;5068583;28;20820;-79
2023/09/15 05:45:17;;;;;;;6.13;3.10;;;9.40;99.90;;;;;;5087706;28;20226;-80
2023/09/15 05:47:43;;;;;;;4.83;3.07;;;9.50;99.90;;;;;;5068581;28;20218;-80
2023/09/15 05:50:10;;;;;;;3.70;2.37;;;9.50;99.90;;;;;;5062755;28;20218;-80
2023/09/15 05:52:37;;;;;;;4.27;2.73;;;9.50;99.90;;;;;;5082491;28;20309;-80
2023/09/15 05:55:05;;;;;;;4.60;3.40;;;9.60;99.90;;;;;;5082430;28;20313;-81
2023/09/15 05:57:31;;;;;;;5.00;2.77;;;9.60;99.90;;;;;;5085671;28;20215;-81
2023/09/15 05:59:58;;;;;;;5.90;3.10;;;9.70;99.90;;;;;;5069180;28;20237;-80
2023/09/15 06:02:26;;;;;;;4.80;3.00;;;9.70;99.90;;;;;;5054213;28;20317;-80
2023/09/15 06:04:53;;;;;;;4.00;2.70;;;9.70;99.90;;;;;;5069659;28;20699;-80
2023/09/15 06:07:20;;;;;;;5.27;2.80;;;9.80;99.90;;;;;;5086374;28;20227;-81
2023/09/15 06:09:48;;;;;;;5.73;3.50;;;9.80;99.90;;;;;;5069816;28;20823;-81
2023/09/15 06:12:14;;;;;;;4.77;2.70;;;9.90;99.90;;;;;;5071168;28;20215;-81
2023/09/15 06:14:41;;;;;;;4.57;3.10;;;10.00;99.90;;;;;;5070389;28;20211;-80
2023/09/15 06:17:08;;;;;;;4.13;2.67;;;10.00;99.90;;;;;;5086601;28;20712;-81
2023/09/15 06:19:36;;;;;;;3.30;3.00;;;10.00;99.90;;;;;;5068984;28;20227;-80
2023/09/15 06:22:03;;;;;;;5.47;2.70;;;10.10;99.90;;;;;;5070041;28;20215;-80
2023/09/15 06:24:29;;;;;;;5.70;3.13;;;10.10;99.90;;;;;;5084744;28;20226;-80
2023/09/15 06:26:56;;;;;;;3.77;3.03;;;10.20;99.90;;;;;;5066132;28;20327;-81
2023/09/15 06:29:23;;;;;;;4.43;2.97;;;10.20;99.90;;;;;;5090529;28;20298;-80
2023/09/15 06:31:50;;;;;;;4.60;3.00;;;10.30;99.90;;;;;;5074923;28;20228;-80
2023/09/15 06:34:16;;;;;;;6.53;3.40;;;10.30;99.90;;;;;;5073996;28;20702;-80
2023/09/15 06:36:44;;;;;;;4.93;2.87;;;10.30;99.90;;;;;;5092089;28;20986;-80
2023/09/15 06:39:11;;;;;;;4.23;3.10;;;10.40;99.90;;;;;;5077202;28;20709;-81
2023/09/15 06:41:38;;;;;;;4.60;2.70;;;10.40;99.90;;;;;;5095975;28;20255;-81
2023/09/15 06:44:05;;;;;;;4.50;2.93;;;10.40;99.90;;;;;;5091702;28;20237;-81
2023/09/15 06:46:33;;;;;;;5.90;3.20;;;10.40;99.90;;;;;;5093461;28;20215;-81
2023/09/15 06:49:00;;;;;;;3.60;2.80;;;10.40;99.90;;;;;;5089724;28;20291;-81
2023/09/15 06:51:27;;;;;;;5.37;3.10;;;10.50;99.90;;;;;;5086433;28;20296;-80
2023/09/15 06:53:55;;;;;;;4.07;2.70;;;10.50;99.90;;;;;;5074057;28;20216;-80
2023/09/15 06:56:22;;;;;;;3.87;3.00;;;10.50;99.90;;;;;;5067769;28;20657;-80
2023/09/15 06:58:49;;;;;;;5.03;3.07;;;10.50;99.90;;;;;;5089445;28;20233;-80
2023/09/15 07:01:15;;;;;;;3.33;2.30;;;10.60;99.90;;;;;;5068469;28;20321;-80
2023/09/15 07:03:42;;;;;;;5.97;3.07;;;10.60;99.90;;;;;;5067323;28;20299;-80
2023/09/15 07:06:09;;;;;;;3.97;2.57;;;10.70;99.90;;;;;;5090303;28;20222;-79
2023/09/15 07:08:35;;;;;;;3.83;2.87;;;10.70;99.90;;;;;;5069067;28;20313;-79
2023/09/15 07:11:03;;;;;;;4.37;2.47;;;10.80;99.90;;;;;;5068995;28;20226;-80
2023/09/15 07:13:30;;;;;;;3.13;2.80;;;10.80;99.90;;;;;;5067702;28;20250;-80
2023/09/15 07:15:57;;;;;;;4.27;2.80;;;10.90;99.90;;;;;;5069910;28;20228;-80
2023/09/15 07:18:23;;;;;;;4.13;2.80;;;10.90;99.90;;;;;;5065665;28;22653;-80
2023/09/15 07:20:50;;;;;;;5.30;2.93;;;11.00;99.90;;;;;;5068982;28;20748;-79
2023/09/15 07:23:17;;;;;;;4.27;2.53;;;11.10;99.90;;;;;;5089995;28;20222;-80
2023/09/15 07:25:45;;;;;;;4.07;2.70;;;11.20;99.90;;;;;;5068655;28;20219;-80
2023/09/15 07:28:13;;;;;;;3.97;2.57;;;11.20;99.90;;;;;;5089618;28;20232;-80
2023/09/15 07:30:45;;;;;;;5.37;2.97;;;11.30;99.90;;;;;;5095799;28;20309;-80
2023/09/15 07:33:12;;;;;;;3.50;2.63;;;11.40;99.90;;;;;;5074053;28;20228;-80
2023/09/15 07:35:39;;;;;;;5.13;2.40;;;11.50;99.90;;;;;;5069980;28;20218;-80
2023/09/15 07:38:06;;;;;;;4.33;2.30;;;11.60;99.90;;;;;;5073470;28;20278;-80
2023/09/15 07:40:33;;;;;;;4.97;2.80;;;11.70;99.90;;;;;;5086504;28;20226;-80
2023/09/15 07:43:00;;;;;;;5.97;2.60;;;11.70;99.90;;;;;;5081323;28;20316;-80
2023/09/15 07:45:28;;;;;;;2.83;2.27;;;11.80;99.90;;;;;;5067866;28;20215;-80
2023/09/15 07:47:55;;;;;;;5.50;2.70;;;12.00;99.90;;;;;;5072328;28;20237;-80
2023/09/15 07:50:22;;;;;;;4.87;2.37;;;12.10;99.90;;;;;;5067304;28;20218;-80
2023/09/15 07:52:49;;;;;;;6.33;2.70;;;12.40;99.90;;;;;;5092448;28;20313;-80
2023/09/15 07:55:15;;;;;;;4.63;2.47;;;12.70;99.90;;;;;;5066053;28;20228;-80
2023/09/15 07:57:42;;;;;;;2.90;2.03;;;13.00;99.90;;;;;;5084234;28;22915;-80
2023/09/15 08:00:11;;;;;;;3.27;2.10;;;13.40;99.90;;;;;;5067124;28;20228;-81
2023/09/15 08:02:42;;;;;;;2.93;1.97;;;13.70;99.90;;;;;;5070236;28;20232;-79
2023/09/15 08:05:09;;;;;;;4.63;2.10;;;13.90;99.90;;;;;;5061445;28;20765;-80
2023/09/15 08:07:36;;;;;;;3.70;2.23;;;14.10;99.90;;;;;;5067346;28;20225;-80
2023/09/15 08:10:03;;;;;;;4.87;2.10;;;14.30;99.90;;;;;;5088087;28;20264;-80
2023/09/15 08:12:30;;;;;;;3.87;2.13;;;14.50;99.90;;;;;;5085820;28;20225;-81
2023/09/15 08:14:57;;;;;;;2.70;2.03;;;14.70;99.90;;;;;;5097282;28;20306;-81
2023/09/15 08:17:24;;;;;;;4.17;2.00;;;15.10;99.90;;;;;;5068641;28;20583;-80
2023/09/15 08:19:54;;;;;;;3.20;1.90;;;15.50;99.90;;;;;;5066453;28;20261;-81
2023/09/15 08:22:22;;;;;;;2.73;1.93;;;16.00;99.90;;;;;;5071071;28;20904;-81
2023/09/15 08:24:49;;;;;;;2.80;1.70;;;16.60;99.90;;;;;;5069071;28;20283;-80
2023/09/15 08:27:16;;;;;;;4.40;2.00;;;17.20;99.90;;;;;;5084200;28;20264;-81
2023/09/15 08:29:42;;;;;;;3.80;2.05;;;17.90;99.90;;;;;;5071696;28;20237;-81
2023/09/15 08:32:10;;;;;;;2.28;1.83;;;18.50;99.90;;;;;;5065581;28;21003;-81
2023/09/15 08:34:37;;;;;;;2.95;1.83;;;19.20;99.90;;;;;;5067730;28;20218;-80
2023/09/15 08:37:05;;;;;;;2.95;1.85;;;19.90;99.90;;;;;;5066005;28;20306;-81
2023/09/15 08:39:31;;;;;;;3.58;1.83;;;20.70;99.90;;;;;;5066180;28;20227;-81
2023/09/15 08:42:01;;;;;;;3.95;1.98;;;21.30;99.90;;;;;;5072005;28;20241;-81
2023/09/15 08:44:31;;;;;;;28.58;2.28;;;21.80;99.90;;;;;;5063514;28;20227;-80
2023/09/15 08:47:00;;;;;;;3.05;1.70;;;22.40;99.90;;;;;;5091044;28;20273;-81
2023/09/15 08:49:27;;;;;;;2.72;1.85;;;22.80;99.90;;;;;;5087023;28;20254;-80
2023/09/15 08:51:55;;;;;;;2.00;1.60;;;23.20;99.00;;;;;;5086043;28;20223;-81
2023/09/15 08:54:24;;;;;;;3.92;1.85;;;23.40;96.30;;;;;;5090385;28;20214;-81
2023/09/15 08:56:50;;;;;;;5.85;3.33;;;23.60;96.70;;;;;;5072827;28;20227;-80
2023/09/15 08:59:17;;;;;;;2.85;1.63;;;23.90;97.40;;;;;;5085940;28;20219;-80
2023/09/15 09:01:44;;;;;;;3.20;1.80;;;24.10;96.70;;;;;;5066217;28;20225;-81
2023/09/15 09:04:11;;;;;;;2.85;1.48;;;24.40;97.70;;;;;;5083815;28;20295;-81
2023/09/15 09:06:38;;;;;;;4.05;1.63;;;24.80;97.30;;;;;;5064802;28;20238;-81
2023/09/15 09:09:05;;;;;;;3.13;1.73;;;25.20;96.70;;;;;;5083961;28;20342;-81
2023/09/15 09:11:33;;;;;;;3.63;1.73;;;25.50;93.90;;;;;;5088679;28;20250;-81
2023/09/15 09:14:00;;;;;;;2.05;1.65;;;25.90;93.00;;;;;;5090685;28;20250;-81
2023/09/15 09:16:28;;;;;;;6.25;1.60;;;26.10;91.10;;;;;;5065497;28;20234;-81
2023/09/15 09:18:56;;;;;;;2.25;1.55;;;26.30;92.00;;;;;;5069224;28;20259;-81
2023/09/15 09:21:25;;;;;;;2.45;1.70;;;26.40;91.40;;;;;;5067903;28;20308;-81
2023/09/15 09:23:52;;;;;;;2.30;1.58;;;26.50;90.10;;;;;;5069104;28;20249;-81
2023/09/15 09:26:18;;;;;;;2.40;1.60;;;26.60;87.00;;;;;;5067496;28;20237;-81
2023/09/15 09:28:47;;;;;;;2.58;1.70;;;26.60;83.60;;;;;;5082951;28;20321;-80
2023/09/15 09:31:14;;;;;;;3.50;1.80;;;26.60;86.20;;;;;;5083820;28;20249;-81
2023/09/15 09:33:42;;;;;;;3.83;1.92;;;26.50;84.00;;;;;;5086494;28;20234;-80
2023/09/15 09:36:11;;;;;;;2.65;1.90;;;26.50;86.10;;;;;;5066584;28;20249;-81
2023/09/15 09:38:38;;;;;;;2.38;1.70;;;26.50;86.30;;;;;;5068389;28;20230;-81
2023/09/15 09:41:05;;;;;;;3.13;1.70;;;26.60;88.40;;;;;;5068025;28;20229;-81
2023/09/15 09:43:34;;;;;;;3.10;1.70;;;26.70;88.80;;;;;;5082781;28;20238;-81
2023/09/15 09:46:03;;;;;;;2.47;1.50;;;27.00;87.90;;;;;;5071017;28;20231;-81
2023/09/15 09:48:29;;;;;;;3.55;1.95;;;27.10;80.80;;;;;;5076215;28;20898;-79
2023/09/15 09:50:56;;;;;;;3.47;1.80;;;27.20;81.80;;;;;;5071406;28;20222;-79
2023/09/15 09:53:27;;;;;;;2.67;1.80;;;27.30;79.00;;;;;;5076197;28;20233;-79
2023/09/15 09:55:54;;;;;;;3.10;1.85;;;27.30;79.10;;;;;;5081951;28;20241;-79
2023/09/15 09:58:22;;;;;;;3.00;1.70;;;27.30;83.80;;;;;;5082470;28;20657;-79
2023/09/15 10:00:50;;;;;;;5.10;2.00;;;27.30;81.20;;;;;;5080584;28;20228;-78
2023/09/15 10:03:18;;;;;;;4.30;1.80;;;27.50;83.80;;;;;;5058640;28;20281;-78
2023/09/15 10:05:45;;;;;;;2.45;1.90;;;27.60;79.40;;;;;;5077703;28;20704;-77
2023/09/15 10:08:12;;;;;;;2.72;2.03;;;27.70;79.80;;;;;;5069744;28;20728;-77
2023/09/15 10:10:43;;;;;;;3.08;1.75;;;27.80;79.20;;;;;;5081959;28;20241;-79
2023/09/15 10:13:11;;;;;;;2.65;2.08;;;27.90;80.00;;;;;;5063525;28;20215;-79
2023/09/15 10:15:39;;;;;;;2.97;2.28;;;27.90;78.70;;;;;;5070898;28;20238;-79
2023/09/15 10:18:07;;;;;;;6.47;2.13;;;27.90;77.30;;;;;;5086731;28;20752;-79
2023/09/15 10:20:36;;;;;;;3.33;2.20;;;28.00;77.30;;;;;;5083878;28;20428;-78
2023/09/15 10:23:06;;;;;;;3.35;2.47;;;27.80;73.20;;;;;;5068505;28;20229;-78
2023/09/15 10:25:41;;;;;;;4.10;2.15;;;27.50;70.50;;;;;;5072645;28;20227;-78
2023/09/15 10:28:09;;;;;;;3.15;2.45;;;27.20;69.90;;;;;;5068176;28;20239;-79
2023/09/15 10:30:36;;;;;;;3.10;2.25;;;26.80;72.50;;;;;;5092922;28;20304;-78
2023/09/15 10:33:04;;;;;;;3.72;2.15;;;26.60;74.40;;;;;;5082506;28;20211;-79
2023/09/15 10:35:32;;;;;;;2.72;2.13;;;26.30;72.20;;;;;;5090061;28;20668;-78
2023/09/15 10:38:03;;;;;;;5.18;2.20;;;26.10;75.30;;;;;;5072186;28;20633;-79
2023/09/15 10:40:42;;;;;;;3.08;2.10;;;26.10;76.60;;;;;;5089081;28;20217;-79
2023/09/15 10:43:09;;;;;;;4.20;1.95;;;26.10;75.90;;;;;;5083034;28;20282;-79
2023/09/15 10:45:35;;;;;;;3.97;2.47;;;26.10;75.60;;;;;;5089061;28;20619;-78
2023/09/15 10:48:04;;;;;;;3.15;2.03;;;26.20;78.10;;;;;;5082542;28;20222;-78
2023/09/15 10:50:32;;;;;;;3.13;2.22;;;26.30;76.90;;;;;;5089434;28;20727;-78
2023/09/15 10:53:09;;;;;;;3.72;1.92;;;26.40;74.60;;;;;;5084587;28;20214;-78
2023/09/15 10:55:36;;;;;;;4.40;2.10;;;26.50;76.50;;;;;;5071077;28;20225;-78
2023/09/15 10:58:03;;;;;;;2.58;1.90;;;26.60;75.80;;;;;;5079824;28;20311;-78
2023/09/15 11:00:30;;;;;;;3.22;2.17;;;26.50;74.50;;;;;;5083888;28;20338;-78
2023/09/15 11:02:57;;;;;;;5.25;2.22;;;26.60;74.90;;;;;;5083242;28;20227;-78
2023/09/15 11:05:26;;;;;;;3.58;1.83;;;26.60;77.20;;;;;;5085123;28;20234;-78
2023/09/15 11:07:54;;;;;;;4.40;2.00;;;26.60;74.80;;;;;;5083389;28;20226;-78
2023/09/15 11:10:26;;;;;;;4.78;2.28;;;26.50;73.90;;;;;;5086829;28;20223;-78
2023/09/15 11:12:58;;;;;;;4.45;2.33;;;26.50;74.40;;;;;;5084214;28;20863;-78
2023/09/15 11:15:25;;;;;;;3.50;2.17;;;26.40;75.80;;;;;;5066094;28;20223;-78
2023/09/15 11:17:52;;;;;;;3.30;2.00;;;26.30;74.00;;;;;;5065861;28;20214;-78
2023/09/15 11:20:20;;;;;;;3.55;2.00;;;26.20;74.90;;;;;;5082416;28;20231;-78
2023/09/15 11:22:47;;;;;;;2.30;1.80;;;26.20;76.10;;;;;;5081529;28;22201;-78
2023/09/15 11:25:15;;;;;;;4.20;1.90;;;26.20;76.70;;;;;;5086200;28;20231;-78
2023/09/15 11:27:46;;;;;;;3.33;2.30;;;26.10;76.90;;;;;;5068278;28;20826;-78
2023/09/15 11:30:13;;;;;;;4.85;2.30;;;26.10;77.00;;;;;;5089058;28;20227;-78
2023/09/15 11:32:40;;;;;;;3.05;1.70;;;26.00;76.30;;;;;;5070399;28;20224;-78
2023/09/15 11:35:11;;;;;;;3.75;2.00;;;26.00;76.70;;;;;;5083474;28;20218;-78
2023/09/15 11:37:39;;;;;;;2.83;1.90;;;26.00;77.60;;;;;;5069793;28;20218;-78
2023/09/15 11:40:07;;;;;;;3.60;2.10;;;26.00;77.20;;;;;;5084609;28;21020;-78
2023/09/15 11:42:34;;;;;;;3.33;2.00;;;26.10;76.60;;;;;;5083363;28;20223;-78
2023/09/15 11:45:04;;;;;;;2.25;2.03;;;26.10;76.60;;;;;;5068520;28;20850;-78
2023/09/15 11:47:32;;;;;;;5.32;2.08;;;25.90;75.70;;;;;;5090326;28;20223;-79
2023/09/15 11:50:01;;;;;;;3.55;2.08;;;25.70;75.60;;;;;;5064445;28;20219;-78
2023/09/15 11:52:29;;;;;;;3.50;2.00;;;25.40;77.20;;;;;;5085792;28;20681;-78
2023/09/15 11:54:55;;;;;;;2.90;1.98;;;25.30;79.20;;;;;;5081460;28;20219;-79
2023/09/15 11:57:23;;;;;;;2.78;2.03;;;25.30;80.20;;;;;;5083137;28;20222;-79
2023/09/15 11:59:49;;;;;;;4.25;2.10;;;25.30;81.80;;;;;;5086240;28;20225;-79
2023/09/15 12:02:19;;;;;;;5.53;2.10;;;25.60;82.20;;;;;;5081674;28;20222;-79
2023/09/15 12:04:46;;;;;;;2.35;2.10;;;25.80;80.60;;;;;;5069116;28;20235;-79
2023/09/15 12:07:12;;;;;;;5.07;1.85;;;25.90;78.10;;;;;;5069734;28;20231;-79
2023/09/15 12:09:40;;;;;;;4.43;2.28;;;26.00;75.30;;;;;;5063181;28;20229;-79
2023/09/15 12:12:09;;;;;;;4.10;2.13;;;26.00;75.60;;;;;;5064547;28;20215;-79
2023/09/15 12:14:37;;;;;;;5.32;2.42;;;26.00;74.70;;;;;;5072496;28;20226;-79
2023/09/15 12:17:05;;;;;;;2.60;2.03;;;25.90;73.30;;;;;;5084371;28;20291;-79
2023/09/15 12:19:37;;;;;;;3.17;2.00;;;25.70;73.30;;;;;;5066074;28;20246;-79
2023/09/15 12:22:04;;;;;;;3.28;1.83;;;25.60;75.10;;;;;;5084153;28;20215;-79
2023/09/15 12:24:31;;;;;;;5.45;2.38;;;25.40;75.70;;;;;;5091748;28;20238;-78
2023/09/15 12:27:00;;;;;;;3.13;1.88;;;25.20;74.30;;;;;;5086045;28;20255;-78
2023/09/15 12:29:28;;;;;;;3.17;2.13;;;25.10;74.50;;;;;;5083007;28;20227;-78
2023/09/15 12:31:56;;;;;;;3.33;2.00;;;25.00;76.60;;;;;;5083029;28;20247;-79
2023/09/15 12:34:24;;;;;;;3.28;2.10;;;25.00;77.40;;;;;;5066318;28;20215;-78
2023/09/15 12:36:53;;;;;;;2.53;1.83;;;25.00;77.40;;;;;;5072898;28;20226;-78
2023/09/15 12:39:20;;;;;;;3.67;1.90;;;25.00;77.00;;;;;;5085577;28;20288;-78
2023/09/15 12:41:46;;;;;;;2.90;1.92;;;25.10;76.80;;;;;;5067899;28;20290;-79
2023/09/15 12:44:13;;;;;;;2.42;1.70;;;25.10;78.30;;;;;;5065602;28;20316;-79
2023/09/15 12:46:40;;;;;;;2.22;2.00;;;25.20;75.70;;;;;;5065423;28;21215;-79
2023/09/15 12:49:07;;;;;;;2.80;2.00;;;25.10;75.40;;;;;;5084274;28;20833;-78
2023/09/15 12:51:34;;;;;;;3.28;1.95;;;25.10;74.50;;;;;;5064631;28;20222;-79
2023/09/15 12:54:04;;;;;;;3.13;2.10;;;25.10;74.10;;;;;;5089775;28;20309;-79
2023/09/15 12:56:31;;;;;;;3.72;2.15;;;25.00;74.90;;;;;;5087562;28;20226;-79